createdAt,value
2023-05-15T00:01:51.180Z,39.97
2023-05-15T00:04:17.872Z,40.72
2023-05-15T00:06:44.636Z,41.47
2023-05-15T00:09:11.316Z,40.65
2023-05-15T00:11:37.958Z,41.05
2023-05-15T00:14:04.667Z,38.90
2023-05-15T00:16:31.354Z,37.42
2023-05-15T00:18:58.384Z,38.67
2023-05-15T00:21:25.088Z,38.65
2023-05-15T00:23:53.886Z,36.38
2023-05-15T00:26:23.145Z,38.42
2023-05-15T00:28:50.679Z,37.22
2023-05-15T00:31:17.408Z,38.67
2023-05-15T00:33:44.238Z,39.63
2023-05-15T00:36:11.077Z,40.85
2023-05-15T00:38:37.777Z,38.33
2023-05-15T00:41:06.907Z,37.88
2023-05-15T00:43:34.747Z,39.17
2023-05-15T00:46:02.185Z,38.50
2023-05-15T00:48:29.506Z,39.80
2023-05-15T00:50:58.930Z,43.28
2023-05-15T00:53:28.258Z,42.13
2023-05-15T00:55:57.839Z,41.03
2023-05-15T00:58:26.729Z,37.78
2023-05-15T01:00:53.523Z,39.95
2023-05-15T01:03:20.705Z,39.55
2023-05-15T01:05:47.380Z,38.47
2023-05-15T01:08:45.804Z,41.00
2023-05-15T01:11:14.335Z,40.10
2023-05-15T01:13:41.377Z,39.15
2023-05-15T01:16:09.546Z,40.47
2023-05-15T01:18:36.981Z,40.53
2023-05-15T01:21:31.995Z,41.90
2023-05-15T01:24:16.327Z,43.13
2023-05-15T01:27:14.287Z,43.42
2023-05-15T01:29:52.825Z,43.90
2023-05-15T01:32:23.877Z,44.70
2023-05-15T01:35:02.517Z,44.25
2023-05-15T01:37:31.892Z,41.70
2023-05-15T01:40:02.272Z,42.95
2023-05-15T01:42:32.864Z,44.55
2023-05-15T01:45:04.975Z,43.55
2023-05-15T01:47:41.816Z,47.60
2023-05-15T01:50:11.198Z,44.65
2023-05-15T01:52:42.810Z,45.50
2023-05-15T01:55:10.124Z,45.10
2023-05-15T01:57:38.509Z,44.58
2023-05-15T02:00:06.765Z,43.88
2023-05-15T02:02:42.104Z,44.45
2023-05-15T02:05:09.744Z,43.03
2023-05-15T02:07:37.100Z,45.40
2023-05-15T02:10:04.534Z,43.60
2023-05-15T02:12:32.110Z,43.50
2023-05-15T02:14:59.646Z,47.00
2023-05-15T02:17:28.522Z,52.88
2023-05-15T02:19:55.629Z,47.72
2023-05-15T02:22:22.276Z,48.72
2023-05-15T02:24:49.301Z,50.63
2023-05-15T02:27:27.707Z,54.45
2023-05-15T02:30:26.512Z,50.47
2023-05-15T02:33:04.663Z,49.53
2023-05-15T02:35:34.845Z,50.72
2023-05-15T02:38:06.352Z,49.42
2023-05-15T02:40:35.727Z,48.95
2023-05-15T02:43:02.810Z,52.97
2023-05-15T02:45:30.915Z,48.70
2023-05-15T02:47:58.557Z,45.75
2023-05-15T02:50:26.348Z,43.55
2023-05-15T02:53:04.941Z,43.50
2023-05-15T02:55:31.793Z,42.22
2023-05-15T02:57:59.075Z,43.17
2023-05-15T03:00:25.954Z,44.80
2023-05-15T03:02:53.213Z,42.80
2023-05-15T03:05:20.166Z,44.92
2023-05-15T03:07:46.959Z,48.50
2023-05-15T03:10:13.841Z,44.97
2023-05-15T03:12:40.605Z,47.00
2023-05-15T03:15:07.534Z,47.95
2023-05-15T03:17:34.346Z,44.97
2023-05-15T03:20:01.137Z,46.78
2023-05-15T03:22:27.808Z,44.20
2023-05-15T03:24:54.460Z,48.38
2023-05-15T03:27:21.504Z,48.25
2023-05-15T03:29:50.754Z,51.38
2023-05-15T03:32:17.788Z,57.30
2023-05-15T03:34:45.080Z,53.25
2023-05-15T03:37:11.756Z,52.58
2023-05-15T03:39:38.495Z,50.28
2023-05-15T03:42:05.452Z,52.03
2023-05-15T03:44:32.311Z,46.70
2023-05-15T03:46:58.995Z,49.60
2023-05-15T03:49:25.786Z,46.92
2023-05-15T03:51:52.561Z,46.22
2023-05-15T03:54:19.307Z,48.35
2023-05-15T03:56:46.191Z,47.95
2023-05-15T03:59:12.799Z,47.78
2023-05-15T04:01:51.039Z,50.90
2023-05-15T04:04:26.124Z,48.25
2023-05-15T04:06:52.733Z,51.50
2023-05-15T04:09:19.360Z,50.80
2023-05-15T04:11:46.598Z,53.70
2023-05-15T04:14:13.722Z,53.42
2023-05-15T04:16:40.698Z,54.38
2023-05-15T04:19:07.383Z,56.45
2023-05-15T04:21:34.582Z,53.53
2023-05-15T04:24:01.298Z,52.65
2023-05-15T04:26:28.045Z,52.75
2023-05-15T04:31:29.652Z,53.58
2023-05-15T04:33:56.305Z,51.78
2023-05-15T04:36:23.036Z,50.88
2023-05-15T04:38:49.668Z,52.20
2023-05-15T04:41:16.256Z,51.42
2023-05-15T04:43:42.949Z,52.85
2023-05-15T04:46:09.759Z,48.40
2023-05-15T04:48:36.492Z,48.33
2023-05-15T04:51:03.104Z,49.75
2023-05-15T04:53:30.247Z,49.75
2023-05-15T04:55:56.997Z,48.97
2023-05-15T04:58:23.928Z,48.47
2023-05-15T05:00:50.604Z,48.42
2023-05-15T05:03:17.466Z,46.03
2023-05-15T05:05:44.382Z,42.80
2023-05-15T05:08:11.224Z,40.75
2023-05-15T05:10:37.849Z,36.70
2023-05-15T05:13:04.643Z,34.72
2023-05-15T05:15:31.285Z,31.02
2023-05-15T05:17:58.329Z,29.13
2023-05-15T05:20:24.989Z,29.35
2023-05-15T05:22:51.840Z,33.33
2023-05-15T05:25:18.653Z,33.35
2023-05-15T05:27:45.280Z,35.67
2023-05-15T05:30:12.422Z,36.28
2023-05-15T05:32:39.102Z,35.72
2023-05-15T05:35:06.042Z,37.25
2023-05-15T05:37:32.733Z,39.00
2023-05-15T05:39:59.330Z,37.78
2023-05-15T05:42:26.805Z,39.13
2023-05-15T05:44:53.444Z,38.60
2023-05-15T05:47:20.194Z,37.53
2023-05-15T05:49:48.060Z,35.83
2023-05-15T05:52:16.005Z,37.67
2023-05-15T05:54:42.929Z,36.03
2023-05-15T05:57:09.857Z,34.08
2023-05-15T05:59:37.376Z,36.83
2023-05-15T06:02:04.748Z,35.60
2023-05-15T06:04:33.356Z,39.35
2023-05-15T06:07:00.146Z,38.08
2023-05-15T06:09:27.106Z,37.60
2023-05-15T06:11:53.846Z,36.40
2023-05-15T06:14:21.291Z,37.72
2023-05-15T06:16:48.130Z,37.85
2023-05-15T06:19:14.931Z,38.58
2023-05-15T06:21:41.613Z,39.90
2023-05-15T06:24:08.418Z,39.40
2023-05-15T06:26:35.225Z,39.65
2023-05-15T06:29:01.853Z,39.10
2023-05-15T06:31:28.469Z,37.60
2023-05-15T06:33:55.260Z,38.35
2023-05-15T06:36:22.432Z,38.47
2023-05-15T06:38:49.064Z,38.83
2023-05-15T06:41:15.858Z,40.95
2023-05-15T06:43:42.485Z,39.40
2023-05-15T06:46:09.132Z,39.88
2023-05-15T06:48:36.385Z,41.92
2023-05-15T06:51:03.318Z,41.17
2023-05-15T06:53:30.475Z,42.22
2023-05-15T06:55:57.444Z,43.15
2023-05-15T06:58:24.509Z,40.53
2023-05-15T07:00:52.050Z,41.58
2023-05-15T07:03:19.737Z,41.13
2023-05-15T07:05:46.612Z,40.33
2023-05-15T07:08:13.297Z,39.53
2023-05-15T07:10:39.942Z,41.80
2023-05-15T07:13:06.559Z,43.08
2023-05-15T07:15:33.415Z,43.55
2023-05-15T07:18:00.230Z,42.70
2023-05-15T07:20:30.310Z,41.83
2023-05-15T07:22:59.316Z,41.33
2023-05-15T07:25:28.736Z,40.88
2023-05-15T07:27:55.621Z,41.47
2023-05-15T07:30:23.140Z,41.45
2023-05-15T07:32:50.173Z,41.05
2023-05-15T07:35:17.083Z,40.95
2023-05-15T07:37:43.905Z,42.20
2023-05-15T07:40:10.974Z,40.17
2023-05-15T07:42:39.512Z,41.03
2023-05-15T07:45:07.311Z,39.60
2023-05-15T07:47:35.562Z,39.15
2023-05-15T07:50:02.671Z,39.60
2023-05-15T07:52:29.345Z,40.85
2023-05-15T07:54:56.037Z,40.90
2023-05-15T07:57:23.058Z,39.53
2023-05-15T07:59:49.744Z,40.80
2023-05-15T08:02:16.418Z,41.10
2023-05-15T08:04:43.266Z,41.15
2023-05-15T08:07:10.058Z,42.05
2023-05-15T08:09:36.885Z,40.40
2023-05-15T08:12:17.642Z,41.20
2023-05-15T08:14:44.335Z,40.50
2023-05-15T08:17:11.483Z,41.03
2023-05-15T08:19:38.325Z,42.13
2023-05-15T08:22:05.139Z,41.85
2023-05-15T08:24:31.755Z,40.08
2023-05-15T08:27:01.183Z,41.17
2023-05-15T08:29:27.818Z,40.92
2023-05-15T08:31:54.475Z,41.20
2023-05-15T08:34:21.111Z,41.05
2023-05-15T08:36:47.759Z,41.78
2023-05-15T08:39:14.402Z,42.20
2023-05-15T08:42:08.022Z,42.72
2023-05-15T08:44:34.920Z,42.72
2023-05-15T08:47:01.983Z,43.60
2023-05-15T08:49:44.240Z,43.47
2023-05-15T08:52:11.181Z,43.88
2023-05-15T08:54:40.339Z,46.28
2023-05-15T08:57:07.973Z,43.55
2023-05-15T08:59:34.828Z,43.17
2023-05-15T09:02:02.237Z,42.90
2023-05-15T09:04:28.992Z,44.08
2023-05-15T09:06:56.790Z,43.28
2023-05-15T09:09:24.426Z,42.97
2023-05-15T09:11:51.772Z,44.92
2023-05-15T09:14:18.782Z,44.45
2023-05-15T09:16:49.338Z,47.95
2023-05-15T09:19:18.530Z,45.88
2023-05-15T09:21:45.259Z,46.20
2023-05-15T09:24:26.332Z,45.47
2023-05-15T09:27:08.950Z,46.30
2023-05-15T09:29:37.875Z,46.17
2023-05-15T09:32:05.339Z,47.10
2023-05-15T09:34:34.256Z,46.53
2023-05-15T09:37:02.753Z,49.80
2023-05-15T09:39:29.565Z,48.58
2023-05-15T09:42:13.530Z,49.95
2023-05-15T09:44:44.186Z,49.78
2023-05-15T09:47:16.783Z,47.22
2023-05-15T09:49:47.210Z,47.83
2023-05-15T09:52:16.183Z,47.03
2023-05-15T09:54:48.190Z,50.65
2023-05-15T09:57:21.216Z,50.93
2023-05-15T09:59:48.872Z,51.63
2023-05-15T10:02:32.197Z,53.50
2023-05-15T10:04:59.329Z,49.85
2023-05-15T10:07:33.938Z,49.58
2023-05-15T10:10:02.491Z,49.63
2023-05-15T10:12:31.808Z,56.92
2023-05-15T10:15:00.641Z,57.75
2023-05-15T10:17:34.400Z,58.05
2023-05-15T10:20:02.110Z,55.45
2023-05-15T10:22:30.935Z,56.95
2023-05-15T10:25:03.387Z,56.80
2023-05-15T10:27:31.014Z,56.50
2023-05-15T10:29:58.501Z,55.92
2023-05-15T10:32:26.503Z,54.60
2023-05-15T10:34:54.912Z,54.15
2023-05-15T10:37:22.708Z,58.42
2023-05-15T10:39:50.854Z,60.70
2023-05-15T10:42:18.922Z,58.40
2023-05-15T10:44:45.709Z,61.08
2023-05-15T10:47:12.566Z,62.38
2023-05-15T10:49:39.406Z,63.10
2023-05-15T10:52:06.497Z,67.07
2023-05-15T10:54:34.178Z,63.45
2023-05-15T10:57:00.904Z,66.50
2023-05-15T10:59:32.388Z,68.72
2023-05-15T11:02:19.200Z,68.07
2023-05-15T11:04:46.161Z,67.90
2023-05-15T11:07:15.060Z,65.90
2023-05-15T11:09:42.158Z,59.92
2023-05-15T11:12:10.208Z,61.75
2023-05-15T11:15:03.817Z,61.13
2023-05-15T11:17:33.240Z,59.47
2023-05-15T11:20:00.249Z,47.90
2023-05-15T11:22:32.649Z,36.88
2023-05-15T11:25:09.157Z,40.38
2023-05-15T11:27:40.876Z,39.75
2023-05-15T11:30:13.481Z,40.58
2023-05-15T11:32:51.166Z,50.88
2023-05-15T11:35:23.820Z,47.67
2023-05-15T11:37:52.068Z,52.45
2023-05-15T11:40:23.119Z,42.67
2023-05-15T11:43:01.508Z,40.45
2023-05-15T11:45:30.802Z,39.80
2023-05-15T11:47:59.915Z,34.17
2023-05-15T11:50:27.910Z,32.97
2023-05-15T11:52:55.792Z,32.00
2023-05-15T11:55:23.049Z,30.00
2023-05-15T11:57:49.948Z,28.80
2023-05-15T12:00:16.931Z,30.80
2023-05-15T12:02:43.753Z,32.05
2023-05-15T12:05:10.929Z,31.77
2023-05-15T12:07:46.787Z,32.75
2023-05-15T12:10:13.957Z,33.58
2023-05-15T12:12:46.001Z,32.70
2023-05-15T12:15:14.249Z,33.15
2023-05-15T12:17:41.631Z,35.90
2023-05-15T12:20:16.142Z,30.95
2023-05-15T12:22:42.762Z,34.58
2023-05-15T12:25:11.487Z,30.15
2023-05-15T12:27:42.321Z,29.88
2023-05-15T12:30:11.082Z,34.20
2023-05-15T12:32:38.791Z,35.00
2023-05-15T12:35:06.057Z,35.85
2023-05-15T12:37:34.828Z,34.13
2023-05-15T12:40:10.333Z,38.72
2023-05-15T12:42:42.013Z,35.80
2023-05-15T12:45:14.058Z,31.90
2023-05-15T12:47:41.772Z,33.33
2023-05-15T12:50:14.868Z,32.65
2023-05-15T12:52:46.813Z,32.88
2023-05-15T12:55:17.726Z,31.58
2023-05-15T12:57:44.616Z,28.48
2023-05-15T13:00:12.592Z,28.60
2023-05-15T13:02:39.496Z,27.65
2023-05-15T13:05:07.399Z,34.45
2023-05-15T13:07:34.043Z,29.60
2023-05-15T13:10:08.037Z,31.40
2023-05-15T13:12:46.340Z,25.93
2023-05-15T13:15:30.791Z,29.23
2023-05-15T13:18:00.697Z,29.98
2023-05-15T13:20:29.216Z,28.80
2023-05-15T13:22:55.863Z,26.35
2023-05-15T13:25:22.518Z,27.88
2023-05-15T13:27:49.890Z,27.02
2023-05-15T13:30:17.519Z,24.58
2023-05-15T13:32:44.382Z,28.38
2023-05-15T13:35:11.534Z,30.88
2023-05-15T13:37:38.582Z,33.22
2023-05-15T13:40:09.685Z,32.30
2023-05-15T13:42:37.785Z,35.88
2023-05-15T13:45:09.632Z,37.92
2023-05-15T13:47:36.986Z,29.58
2023-05-15T13:50:04.007Z,32.50
2023-05-15T13:52:31.264Z,32.63
2023-05-15T13:54:57.889Z,31.90
2023-05-15T13:57:24.986Z,29.15
2023-05-15T13:59:51.993Z,30.30
2023-05-15T14:02:18.777Z,29.02
2023-05-15T14:04:46.965Z,29.75
2023-05-15T14:07:13.878Z,33.08
2023-05-15T14:09:40.528Z,35.63
2023-05-15T14:12:07.277Z,36.33
2023-05-15T14:14:33.951Z,34.80
2023-05-15T14:17:00.670Z,35.80
2023-05-15T14:19:27.347Z,33.55
2023-05-15T14:21:54.181Z,31.35
2023-05-15T14:24:20.900Z,33.65
2023-05-15T14:26:47.583Z,35.38
2023-05-15T14:29:14.295Z,35.75
2023-05-15T14:31:43.045Z,31.42
2023-05-15T14:34:09.768Z,32.10
2023-05-15T14:36:36.840Z,31.33
2023-05-15T14:39:04.182Z,28.15
2023-05-15T14:41:30.887Z,28.85
2023-05-15T14:43:57.567Z,28.35
2023-05-15T14:46:24.537Z,26.38
2023-05-15T14:48:51.409Z,26.88
2023-05-15T14:51:19.878Z,28.95
2023-05-15T14:53:46.790Z,29.13
2023-05-15T14:56:13.667Z,32.75
2023-05-15T14:58:40.424Z,31.75
2023-05-15T15:01:07.047Z,29.88
2023-05-15T15:03:34.342Z,28.80
2023-05-15T15:06:01.292Z,27.48
2023-05-15T15:08:28.000Z,27.90
2023-05-15T15:10:54.642Z,30.15
2023-05-15T15:13:21.326Z,34.38
2023-05-15T15:15:48.292Z,28.35
2023-05-15T15:18:15.082Z,28.58
2023-05-15T15:20:42.611Z,30.25
2023-05-15T15:23:09.705Z,29.67
2023-05-15T15:25:36.572Z,28.08
2023-05-15T15:28:03.579Z,31.00
2023-05-15T15:30:30.932Z,28.90
2023-05-15T15:32:57.789Z,30.67
2023-05-15T15:35:24.958Z,30.27
2023-05-15T15:37:52.912Z,31.50
2023-05-15T15:40:20.289Z,30.90
2023-05-15T15:42:46.923Z,31.63
2023-05-15T15:45:13.599Z,29.63
2023-05-15T15:47:40.357Z,30.95
2023-05-15T15:50:07.443Z,31.40
2023-05-15T15:52:34.085Z,30.80
2023-05-15T15:55:00.732Z,31.85
2023-05-15T15:57:29.338Z,29.48
2023-05-15T15:59:56.089Z,28.90
2023-05-15T16:02:22.897Z,33.47
2023-05-15T16:04:49.964Z,32.42
2023-05-15T16:07:16.970Z,30.08
2023-05-15T16:09:43.700Z,31.13
2023-05-15T16:12:10.330Z,30.85
2023-05-15T16:14:37.019Z,33.28
2023-05-15T16:17:04.235Z,34.90
2023-05-15T16:19:31.195Z,34.80
2023-05-15T16:21:57.847Z,34.38
2023-05-15T16:24:24.536Z,36.95
2023-05-15T16:26:51.407Z,37.13
2023-05-15T16:29:18.785Z,38.50
2023-05-15T16:31:46.751Z,37.47
2023-05-15T16:34:13.784Z,37.08
2023-05-15T16:36:40.421Z,38.03
2023-05-15T16:39:07.805Z,39.20
2023-05-15T16:41:34.458Z,37.95
2023-05-15T16:44:01.349Z,38.53
2023-05-15T16:46:28.048Z,36.60
2023-05-15T16:48:54.707Z,38.35
2023-05-15T16:51:21.390Z,38.97
2023-05-15T16:53:48.192Z,38.38
2023-05-15T16:56:14.831Z,37.15
2023-05-15T16:58:42.499Z,36.60
2023-05-15T17:01:09.443Z,38.70
2023-05-15T17:03:37.075Z,37.70
2023-05-15T17:06:04.098Z,40.17
2023-05-15T17:08:30.887Z,40.03
2023-05-15T17:10:57.563Z,38.05
2023-05-15T17:13:25.494Z,39.97
2023-05-15T17:15:53.921Z,39.75
2023-05-15T17:18:20.654Z,37.95
2023-05-15T17:20:47.351Z,38.60
2023-05-15T17:23:14.003Z,38.35
2023-05-15T17:25:40.642Z,40.88
2023-05-15T17:28:07.301Z,36.55
2023-05-15T17:30:33.957Z,42.40
2023-05-15T17:33:00.818Z,41.53
2023-05-15T17:35:29.281Z,44.00
2023-05-15T17:37:57.482Z,41.72
2023-05-15T17:40:24.125Z,43.75
2023-05-15T17:42:50.940Z,42.63
2023-05-15T17:45:17.608Z,43.15
2023-05-15T17:47:44.399Z,42.78
2023-05-15T17:50:11.440Z,40.15
2023-05-15T17:52:38.329Z,40.90
2023-05-15T17:55:05.725Z,41.13
2023-05-15T17:57:32.419Z,40.03
2023-05-15T17:59:59.113Z,42.45
2023-05-15T18:02:25.867Z,42.85
2023-05-15T18:04:52.587Z,40.95
2023-05-15T18:07:19.432Z,41.47
2023-05-15T18:09:46.062Z,49.20
2023-05-15T18:12:12.696Z,46.15
2023-05-15T18:14:40.465Z,45.35
2023-05-15T18:17:07.315Z,44.70
2023-05-15T18:19:34.013Z,44.00
2023-05-15T18:22:03.089Z,45.08
2023-05-15T18:24:29.790Z,46.10
2023-05-15T18:26:56.481Z,44.30
2023-05-15T18:29:23.436Z,40.75
2023-05-15T18:31:50.172Z,43.28
2023-05-15T18:34:16.833Z,42.45
2023-05-15T18:36:43.638Z,45.30
2023-05-15T18:39:10.297Z,47.80
2023-05-15T18:41:37.065Z,47.47
2023-05-15T18:44:04.246Z,48.72
2023-05-15T18:46:31.641Z,49.38
2023-05-15T18:48:58.984Z,47.33
2023-05-15T18:51:25.840Z,47.13
2023-05-15T18:53:52.545Z,45.92
2023-05-15T18:56:19.242Z,47.53
2023-05-15T18:58:47.268Z,51.40
2023-05-15T19:01:14.020Z,45.60
2023-05-15T19:03:40.784Z,39.92
2023-05-15T19:06:07.669Z,40.72
2023-05-15T19:08:34.350Z,42.45
2023-05-15T19:11:01.619Z,40.78
2023-05-15T19:13:32.415Z,42.97
2023-05-15T19:15:59.039Z,43.97
2023-05-15T19:18:25.669Z,46.35
2023-05-15T19:20:52.384Z,47.47
2023-05-15T19:23:20.684Z,57.83
2023-05-15T19:25:47.578Z,56.60
2023-05-15T19:28:14.800Z,79.95
2023-05-15T19:30:41.603Z,62.25
2023-05-15T19:33:08.489Z,71.93
2023-05-15T19:35:37.355Z,74.57
2023-05-15T19:38:04.518Z,60.00
2023-05-15T19:40:31.147Z,55.47
2023-05-15T19:42:58.353Z,49.30
2023-05-15T19:45:24.963Z,48.72
2023-05-15T19:47:51.720Z,43.58
2023-05-15T19:50:18.501Z,41.13
2023-05-15T19:52:45.558Z,40.70
2023-05-15T19:55:12.565Z,32.72
2023-05-15T19:57:44.652Z,31.27
2023-05-15T20:00:12.397Z,28.15
2023-05-15T20:02:41.055Z,25.55
2023-05-15T20:05:08.594Z,25.00
2023-05-15T20:07:35.717Z,25.35
2023-05-15T20:10:02.453Z,26.30
2023-05-15T20:12:29.126Z,24.25
2023-05-15T20:14:55.825Z,24.48
2023-05-15T20:17:22.885Z,23.23
2023-05-15T20:19:50.386Z,23.23
2023-05-15T20:22:17.501Z,24.73
2023-05-15T20:24:44.819Z,26.63
2023-05-15T20:27:12.106Z,28.02
2023-05-15T20:29:39.297Z,29.08
2023-05-15T20:32:06.285Z,29.60
2023-05-15T20:34:34.290Z,29.67
2023-05-15T20:37:02.551Z,31.88
2023-05-15T20:39:29.169Z,29.73
2023-05-15T20:41:56.440Z,32.10
2023-05-15T20:44:23.038Z,28.88
2023-05-15T20:46:50.092Z,28.45
2023-05-15T20:49:16.730Z,30.00
2023-05-15T20:51:44.456Z,25.52
2023-05-15T20:54:11.462Z,25.08
2023-05-15T20:56:38.341Z,27.75
2023-05-15T20:59:04.976Z,26.58
2023-05-15T21:01:31.651Z,25.13
2023-05-15T21:03:58.831Z,25.75
2023-05-15T21:06:25.867Z,25.58
2023-05-15T21:08:52.500Z,23.75
2023-05-15T21:11:19.173Z,24.08
2023-05-15T21:13:45.941Z,26.08
2023-05-15T21:16:12.542Z,26.10
2023-05-15T21:18:39.316Z,26.17
2023-05-15T21:21:07.111Z,26.67
2023-05-15T21:23:36.394Z,27.88
2023-05-15T21:26:03.579Z,27.90
2023-05-15T21:28:30.714Z,28.52
2023-05-15T21:30:57.422Z,33.08
2023-05-15T21:33:24.096Z,33.42
2023-05-15T21:35:51.397Z,32.42
2023-05-15T21:38:18.395Z,33.75
2023-05-15T21:40:45.089Z,39.60
2023-05-15T21:43:11.688Z,37.63
2023-05-15T21:45:38.389Z,34.85
2023-05-15T21:48:05.185Z,38.67
2023-05-15T21:50:32.517Z,40.90
2023-05-15T21:52:59.176Z,41.30
2023-05-15T21:55:25.880Z,43.00
2023-05-15T21:57:52.509Z,43.90
2023-05-15T22:00:19.340Z,38.70
2023-05-15T22:02:46.384Z,44.10
2023-05-15T22:05:13.533Z,38.17
2023-05-15T22:07:40.379Z,42.60
2023-05-15T22:10:08.049Z,45.08
2023-05-15T22:12:34.763Z,45.88
2023-05-15T22:15:01.375Z,42.38
2023-05-15T22:17:28.802Z,45.70
2023-05-15T22:20:07.363Z,50.75
2023-05-15T22:22:35.392Z,52.10
2023-05-15T22:25:02.225Z,48.40
2023-05-15T22:27:29.212Z,53.83
2023-05-15T22:29:56.344Z,48.67
2023-05-15T22:32:23.314Z,52.45
2023-05-15T22:34:49.970Z,53.90
2023-05-15T22:37:16.620Z,52.08
2023-05-15T22:39:43.654Z,54.00
2023-05-15T22:42:10.906Z,51.17
2023-05-15T22:44:37.526Z,52.20
2023-05-15T22:47:04.858Z,51.75
2023-05-15T22:49:31.561Z,53.67
2023-05-15T22:51:58.456Z,51.50
2023-05-15T22:54:25.196Z,53.63
2023-05-15T22:56:52.383Z,46.85
2023-05-15T22:59:19.512Z,53.80
2023-05-15T23:01:47.209Z,52.33
2023-05-15T23:04:14.398Z,52.80
2023-05-15T23:06:41.176Z,52.05
2023-05-15T23:09:08.591Z,56.22
2023-05-15T23:11:35.811Z,54.97
2023-05-15T23:14:02.831Z,54.30
2023-05-15T23:16:29.586Z,49.15
2023-05-15T23:18:57.704Z,53.08
2023-05-15T23:21:24.517Z,52.30
2023-05-15T23:23:51.512Z,54.58
2023-05-15T23:26:18.275Z,55.45
2023-05-15T23:28:44.932Z,55.42
2023-05-15T23:31:13.725Z,48.63
2023-05-15T23:33:40.619Z,50.75
2023-05-15T23:36:07.351Z,56.97
2023-05-15T23:38:34.028Z,56.47
2023-05-15T23:41:00.726Z,58.97
2023-05-15T23:43:28.278Z,59.70
2023-05-15T23:45:54.970Z,58.47
2023-05-15T23:48:21.627Z,56.92
2023-05-15T23:50:49.279Z,56.90
2023-05-15T23:53:15.923Z,56.63
2023-05-15T23:55:42.587Z,63.95
2023-05-15T23:58:09.299Z,62.17
